createdAt,value
2022-08-17T00:00:18.259Z,7.90
2022-08-17T00:03:06.695Z,6.27
2022-08-17T00:05:38.636Z,8.47
2022-08-17T00:08:06.051Z,8.33
2022-08-17T00:10:33.470Z,7.80
2022-08-17T00:13:02.933Z,6.57
2022-08-17T00:15:29.958Z,9.80
2022-08-17T00:17:59.776Z,8.37
2022-08-17T00:20:30.435Z,6.73
2022-08-17T00:23:07.505Z,7.07
2022-08-17T00:25:38.960Z,7.70
2022-08-17T00:28:06.215Z,5.67
2022-08-17T00:30:51.316Z,5.40
2022-08-17T00:33:27.163Z,6.80
2022-08-17T00:35:55.821Z,5.13
2022-08-17T00:38:23.855Z,7.97
2022-08-17T00:40:55.638Z,8.30
2022-08-17T00:43:36.838Z,4.63
2022-08-17T00:46:11.238Z,5.43
2022-08-17T00:48:39.149Z,5.80
2022-08-17T00:51:20.567Z,8.07
2022-08-17T00:53:55.451Z,5.50
2022-08-17T00:56:32.551Z,4.80
2022-08-17T00:58:59.673Z,5.50
2022-08-17T01:01:26.744Z,7.80
2022-08-17T01:03:55.631Z,6.10
2022-08-17T01:06:29.038Z,4.10
2022-08-17T01:08:57.996Z,4.40
2022-08-17T01:11:26.025Z,4.03
2022-08-17T01:13:55.864Z,5.17
2022-08-17T01:16:31.087Z,7.20
2022-08-17T01:19:07.242Z,4.70
2022-08-17T01:21:46.345Z,4.03
2022-08-17T01:24:14.173Z,3.90
2022-08-17T01:26:43.056Z,6.07
2022-08-17T01:29:16.096Z,4.50
2022-08-17T01:31:47.287Z,3.57
2022-08-17T01:34:15.971Z,5.33
2022-08-17T01:36:46.606Z,4.53
2022-08-17T01:39:24.480Z,5.07
2022-08-17T01:41:54.076Z,4.67
2022-08-17T01:44:22.072Z,3.50
2022-08-17T01:46:50.063Z,3.77
2022-08-17T01:49:19.616Z,4.53
2022-08-17T01:51:46.463Z,5.67
2022-08-17T01:54:16.077Z,5.97
2022-08-17T01:56:47.619Z,3.87
2022-08-17T01:59:19.845Z,5.83
2022-08-17T02:01:47.053Z,4.23
2022-08-17T02:04:16.731Z,4.83
2022-08-17T02:06:52.843Z,4.50
2022-08-17T02:09:29.781Z,4.00
2022-08-17T02:12:00.010Z,3.90
2022-08-17T02:14:47.633Z,6.67
2022-08-17T02:17:14.559Z,7.23
2022-08-17T02:19:41.839Z,6.17
2022-08-17T02:22:09.159Z,3.80
2022-08-17T02:24:59.360Z,4.43
2022-08-17T02:27:29.837Z,3.70
2022-08-17T02:30:01.085Z,3.80
2022-08-17T02:32:28.872Z,4.30
2022-08-17T02:34:57.304Z,4.63
2022-08-17T02:37:25.520Z,4.73
2022-08-17T02:39:52.584Z,8.17
2022-08-17T02:42:25.497Z,6.60
2022-08-17T02:44:52.403Z,3.70
2022-08-17T02:47:19.224Z,3.93
2022-08-17T02:49:54.126Z,4.00
2022-08-17T02:52:42.523Z,3.97
2022-08-17T02:55:23.697Z,4.30
2022-08-17T02:57:51.311Z,3.77
2022-08-17T03:00:22.204Z,4.20
2022-08-17T03:02:50.308Z,5.93
2022-08-17T03:05:20.981Z,4.23
2022-08-17T03:07:47.930Z,4.83
2022-08-17T03:10:15.352Z,4.20
2022-08-17T03:12:43.524Z,4.13
2022-08-17T03:15:18.432Z,7.30
2022-08-17T03:17:45.545Z,5.80
2022-08-17T03:20:13.469Z,4.30
2022-08-17T03:22:53.521Z,7.63
2022-08-17T03:25:24.973Z,4.30
2022-08-17T03:27:55.566Z,6.13
2022-08-17T03:30:23.948Z,3.77
2022-08-17T03:32:53.459Z,4.13
2022-08-17T03:35:25.077Z,4.00
2022-08-17T03:38:00.321Z,4.87
2022-08-17T03:40:41.801Z,5.20
2022-08-17T03:43:19.944Z,4.77
2022-08-17T03:46:24.950Z,4.77
2022-08-17T03:49:14.070Z,4.67
2022-08-17T03:52:01.028Z,5.73
2022-08-17T03:54:46.495Z,4.23
2022-08-17T03:57:13.906Z,4.00
2022-08-17T03:59:40.887Z,4.07
2022-08-17T04:02:11.085Z,4.83
2022-08-17T04:04:39.341Z,4.60
2022-08-17T04:07:06.871Z,5.30
2022-08-17T04:09:34.086Z,4.80
2022-08-17T04:12:04.476Z,4.47
2022-08-17T04:14:36.438Z,4.23
2022-08-17T04:17:20.073Z,4.20
2022-08-17T04:19:47.049Z,6.57
2022-08-17T04:22:31.850Z,4.07
2022-08-17T04:25:17.114Z,4.83
2022-08-17T04:27:44.044Z,3.87
2022-08-17T04:30:14.159Z,3.90
2022-08-17T04:33:04.002Z,4.93
2022-08-17T04:35:55.425Z,5.50
2022-08-17T04:38:26.074Z,4.60
2022-08-17T04:41:12.739Z,6.10
2022-08-17T04:43:44.387Z,4.50
2022-08-17T04:46:17.328Z,4.83
2022-08-17T04:48:52.085Z,4.90
2022-08-17T04:51:20.702Z,4.27
2022-08-17T04:53:54.050Z,5.20
2022-08-17T04:56:24.380Z,9.50
2022-08-17T04:58:54.630Z,6.87
2022-08-17T05:01:28.934Z,7.57
2022-08-17T05:03:59.082Z,6.57
2022-08-17T05:06:27.647Z,4.57
2022-08-17T05:08:55.295Z,5.03
2022-08-17T05:11:23.849Z,5.63
2022-08-17T05:13:50.793Z,4.57
2022-08-17T05:16:19.486Z,3.90
2022-08-17T05:18:46.870Z,4.87
2022-08-17T05:21:14.648Z,4.40
2022-08-17T05:23:43.560Z,4.30
2022-08-17T05:26:25.652Z,4.87
2022-08-17T05:29:00.529Z,4.23
2022-08-17T05:31:31.137Z,4.37
2022-08-17T05:33:59.140Z,7.20
2022-08-17T05:36:43.414Z,7.90
2022-08-17T05:39:16.545Z,3.73
2022-08-17T05:41:48.187Z,6.10
2022-08-17T05:44:16.020Z,6.80
2022-08-17T05:46:48.493Z,4.93
2022-08-17T05:49:20.080Z,5.07
2022-08-17T05:52:20.792Z,4.50
2022-08-17T05:55:11.974Z,4.27
2022-08-17T05:57:53.271Z,5.43
2022-08-17T06:00:30.360Z,4.40
2022-08-17T06:03:16.781Z,4.00
2022-08-17T06:05:52.123Z,5.20
2022-08-17T06:08:54.484Z,6.60
2022-08-17T06:11:45.479Z,4.67
2022-08-17T06:14:32.977Z,6.00
2022-08-17T06:17:08.157Z,9.27
2022-08-17T06:19:39.867Z,6.87
2022-08-17T06:22:09.493Z,6.97
2022-08-17T06:24:42.045Z,6.23
2022-08-17T06:27:19.818Z,7.57
2022-08-17T06:29:51.117Z,6.17
2022-08-17T06:32:19.005Z,7.60
2022-08-17T06:34:46.474Z,7.17
2022-08-17T06:37:26.944Z,5.30
2022-08-17T06:40:15.894Z,7.17
2022-08-17T06:43:07.361Z,8.47
2022-08-17T06:45:43.889Z,8.60
2022-08-17T06:48:13.842Z,7.50
2022-08-17T06:51:10.141Z,9.87
2022-08-17T06:53:49.130Z,8.00
2022-08-17T06:56:53.408Z,7.83
2022-08-17T06:59:54.660Z,8.47
2022-08-17T07:02:29.098Z,8.73
2022-08-17T07:05:10.104Z,9.77
2022-08-17T07:07:57.139Z,7.47
2022-08-17T07:10:25.862Z,5.40
2022-08-17T07:12:54.596Z,8.07
2022-08-17T07:15:45.078Z,9.00
2022-08-17T07:18:12.062Z,11.70
2022-08-17T07:20:42.954Z,16.87
2022-08-17T07:23:28.358Z,23.37
2022-08-17T07:26:07.318Z,11.63
2022-08-17T07:28:36.179Z,7.23
2022-08-17T07:31:04.721Z,6.87
2022-08-17T07:33:36.930Z,7.43
2022-08-17T07:36:04.180Z,6.77
2022-08-17T07:38:33.237Z,5.73
2022-08-17T07:41:05.372Z,12.07
2022-08-17T07:43:35.258Z,9.53
2022-08-17T07:46:30.296Z,9.43
2022-08-17T07:49:16.665Z,6.93
2022-08-17T07:51:43.814Z,8.33
2022-08-17T07:54:22.524Z,12.30
2022-08-17T07:56:51.131Z,7.87
2022-08-17T07:59:24.116Z,8.63
2022-08-17T08:01:58.143Z,11.00
2022-08-17T08:07:22.182Z,8.47
2022-08-17T08:10:35.556Z,8.80
2022-08-17T08:13:15.742Z,9.87
2022-08-17T08:15:53.621Z,9.60
2022-08-17T08:18:53.754Z,9.60
2022-08-17T08:21:41.801Z,8.37
2022-08-17T08:24:11.661Z,12.87
2022-08-17T08:26:41.485Z,47.17
2022-08-17T08:29:29.961Z,12.20
2022-08-17T08:32:00.114Z,12.20
2022-08-17T08:35:02.710Z,9.70
2022-08-17T08:38:08.731Z,12.27
2022-08-17T08:40:55.451Z,8.57
2022-08-17T08:43:37.375Z,8.30
2022-08-17T08:46:23.041Z,8.43
2022-08-17T08:49:18.404Z,11.07
2022-08-17T08:51:53.145Z,9.03
2022-08-17T08:54:35.676Z,9.37
2022-08-17T08:57:26.919Z,11.50
2022-08-17T09:00:16.401Z,8.23
2022-08-17T09:03:04.477Z,11.00
2022-08-17T09:05:40.671Z,10.23
2022-08-17T09:08:16.858Z,12.13
2022-08-17T09:10:59.918Z,12.37
2022-08-17T09:13:59.214Z,14.60
2022-08-17T09:16:56.308Z,8.77
2022-08-17T09:19:59.460Z,9.03
2022-08-17T09:22:36.911Z,8.83
2022-08-17T09:25:12.171Z,10.97
2022-08-17T09:28:03.567Z,9.83
2022-08-17T09:31:03.799Z,9.63
2022-08-17T09:33:34.968Z,9.80
2022-08-17T09:36:26.795Z,16.83
2022-08-17T09:38:58.412Z,12.77
2022-08-17T09:41:33.711Z,12.23
2022-08-17T09:44:30.118Z,10.60
2022-08-17T09:47:28.012Z,9.73
2022-08-17T09:50:11.519Z,10.50
2022-08-17T09:52:39.281Z,9.60
2022-08-17T09:55:06.555Z,10.70
2022-08-17T09:57:42.904Z,11.43
2022-08-17T10:00:16.560Z,10.67
2022-08-17T10:03:03.255Z,9.97
2022-08-17T10:05:43.220Z,10.70
2022-08-17T10:08:36.404Z,11.07
2022-08-17T10:11:13.311Z,11.27
2022-08-17T10:13:53.093Z,15.40
2022-08-17T10:16:29.868Z,9.53
2022-08-17T10:19:08.271Z,10.77
2022-08-17T10:22:01.214Z,10.47
2022-08-17T10:25:23.474Z,11.30
2022-08-17T10:27:55.012Z,10.23
2022-08-17T10:30:25.549Z,10.07
2022-08-17T10:33:01.958Z,10.43
2022-08-17T10:35:41.338Z,11.03
2022-08-17T10:38:31.333Z,10.03
2022-08-17T10:41:07.049Z,11.90
2022-08-17T10:43:36.913Z,9.97
2022-08-17T10:46:30.905Z,9.43
2022-08-17T10:49:17.385Z,9.87
2022-08-17T10:51:48.174Z,11.00
2022-08-17T10:54:24.189Z,11.00
2022-08-17T10:56:53.930Z,8.83
2022-08-17T10:59:36.322Z,12.27
2022-08-17T11:02:28.159Z,9.43
2022-08-17T11:05:04.356Z,9.87
2022-08-17T11:07:37.190Z,10.27
2022-08-17T11:10:32.935Z,9.83
2022-08-17T11:13:09.016Z,10.13
2022-08-17T11:15:52.108Z,12.03
2022-08-17T11:18:19.002Z,12.47
2022-08-17T11:20:48.896Z,12.13
2022-08-17T11:23:38.308Z,11.23
2022-08-17T11:26:25.968Z,13.10
2022-08-17T11:28:59.599Z,11.30
2022-08-17T11:31:38.442Z,12.37
2022-08-17T11:34:22.407Z,12.37
2022-08-17T11:36:52.350Z,11.43
2022-08-17T11:39:23.122Z,11.20
2022-08-17T11:41:58.628Z,11.97
2022-08-17T11:44:32.428Z,11.90
2022-08-17T11:48:08.927Z,11.40
2022-08-17T11:51:47.266Z,11.47
2022-08-17T11:54:34.393Z,12.70
2022-08-17T11:57:29.426Z,13.90
2022-08-17T12:00:10.328Z,13.00
2022-08-17T12:02:48.070Z,14.17
2022-08-17T12:05:26.282Z,12.30
2022-08-17T12:08:05.633Z,12.30
2022-08-17T12:10:36.393Z,11.45
2022-08-17T12:13:13.319Z,13.30
2022-08-17T12:15:45.165Z,13.40
2022-08-17T12:18:28.014Z,12.97
2022-08-17T12:21:22.311Z,15.63
2022-08-17T12:23:56.972Z,14.03
2022-08-17T12:26:35.825Z,15.40
2022-08-17T12:29:39.033Z,14.67
2022-08-17T12:31:55.261Z,14.33
2022-08-17T12:34:36.335Z,13.53
2022-08-17T12:37:07.635Z,12.97
2022-08-17T12:39:35.455Z,13.20
2022-08-17T12:42:04.760Z,13.43
2022-08-17T12:44:35.098Z,11.57
2022-08-17T12:47:21.060Z,12.33
2022-08-17T12:49:51.801Z,13.60
2022-08-17T12:52:28.337Z,11.87
2022-08-17T12:55:21.289Z,11.83
2022-08-17T12:57:54.993Z,12.50
2022-08-17T13:00:41.215Z,15.40
2022-08-17T13:03:21.082Z,13.13
2022-08-17T13:05:56.602Z,13.97
2022-08-17T13:08:34.044Z,12.43
2022-08-17T13:11:04.006Z,13.47
2022-08-17T13:13:36.664Z,12.53
2022-08-17T13:16:09.560Z,13.83
2022-08-17T13:18:38.936Z,13.40
2022-08-17T13:21:11.914Z,12.53
2022-08-17T13:23:39.004Z,13.53
2022-08-17T13:26:15.580Z,12.67
2022-08-17T13:28:49.758Z,12.27
2022-08-17T13:31:27.889Z,14.37
2022-08-17T13:34:26.697Z,13.60
2022-08-17T13:37:17.675Z,14.03
2022-08-17T13:39:51.398Z,13.83
2022-08-17T13:42:52.058Z,13.57
2022-08-17T13:45:36.353Z,10.50
2022-08-17T13:48:16.531Z,10.30
2022-08-17T13:51:03.109Z,11.07
2022-08-17T13:53:40.498Z,12.90
2022-08-17T13:56:37.983Z,12.60
2022-08-17T13:59:36.076Z,11.87
2022-08-17T14:02:21.309Z,11.80
2022-08-17T14:04:48.848Z,14.03
2022-08-17T14:07:18.194Z,14.00
2022-08-17T14:10:10.909Z,13.70
2022-08-17T14:12:39.462Z,14.40
2022-08-17T14:15:08.059Z,15.03
2022-08-17T14:17:38.865Z,14.57
2022-08-17T14:20:09.677Z,18.17
2022-08-17T14:22:39.916Z,16.87
2022-08-17T14:25:10.255Z,14.47
2022-08-17T14:27:41.872Z,14.80
2022-08-17T14:30:22.257Z,16.57
2022-08-17T14:32:49.635Z,16.23
2022-08-17T14:35:17.199Z,14.90
2022-08-17T14:37:48.978Z,17.13
2022-08-17T14:40:21.000Z,17.10
2022-08-17T14:42:48.547Z,19.07
2022-08-17T14:45:30.458Z,17.17
2022-08-17T14:48:08.498Z,16.27
2022-08-17T14:50:39.196Z,15.97
2022-08-17T14:53:07.731Z,14.67
2022-08-17T14:55:36.370Z,15.87
2022-08-17T14:58:04.169Z,17.80
2022-08-17T15:00:32.476Z,16.70
2022-08-17T15:03:01.298Z,16.73
2022-08-17T15:05:32.408Z,17.87
2022-08-17T15:08:03.280Z,14.93
2022-08-17T15:10:32.998Z,15.50
2022-08-17T15:13:00.451Z,18.27
2022-08-17T15:15:28.333Z,16.50
2022-08-17T15:17:56.162Z,19.40
2022-08-17T15:20:27.747Z,18.17
2022-08-17T15:22:56.061Z,18.33
2022-08-17T15:25:24.819Z,17.47
2022-08-17T15:27:52.152Z,18.03
2022-08-17T15:30:21.014Z,17.97
2022-08-17T15:32:51.187Z,17.57
2022-08-17T15:35:28.026Z,17.50
2022-08-17T15:37:57.888Z,16.23
2022-08-17T15:40:25.242Z,16.10
2022-08-17T15:42:53.051Z,17.80
2022-08-17T15:45:24.723Z,17.07
2022-08-17T15:47:53.592Z,14.30
2022-08-17T15:50:21.100Z,14.13
2022-08-17T15:52:55.348Z,12.77
2022-08-17T15:55:24.286Z,14.10
2022-08-17T15:57:53.377Z,14.17
2022-08-17T16:00:27.970Z,14.23
2022-08-17T16:03:46.050Z,16.20
2022-08-17T16:05:44.830Z,13.80
2022-08-17T16:08:21.271Z,13.00
2022-08-17T16:10:50.288Z,14.53
2022-08-17T16:13:18.925Z,13.63
2022-08-17T16:15:57.282Z,14.37
2022-08-17T16:18:31.445Z,12.83
2022-08-17T16:21:24.174Z,12.87
2022-08-17T16:26:39.283Z,14.03
2022-08-17T16:29:08.440Z,13.80
2022-08-17T16:31:37.918Z,12.97
2022-08-17T16:34:17.527Z,12.60
2022-08-17T16:36:55.242Z,12.03
2022-08-17T16:39:33.891Z,13.47
2022-08-17T16:42:03.049Z,10.70
2022-08-17T16:44:32.397Z,11.67
2022-08-17T16:47:03.022Z,12.67
2022-08-17T16:49:37.199Z,11.30
2022-08-17T16:52:10.605Z,12.20
2022-08-17T16:54:41.990Z,12.00
2022-08-17T16:57:11.392Z,12.13
2022-08-17T16:59:42.633Z,12.57
2022-08-17T17:02:13.691Z,12.37
2022-08-17T17:05:03.098Z,11.37
2022-08-17T17:07:44.654Z,11.93
2022-08-17T17:10:27.699Z,12.33
2022-08-17T17:13:02.781Z,12.13
2022-08-17T17:15:56.388Z,12.43
2022-08-17T17:18:41.106Z,12.87
2022-08-17T17:21:14.361Z,12.10
2022-08-17T17:23:45.213Z,12.30
2022-08-17T17:27:02.204Z,12.53
2022-08-17T17:30:00.643Z,12.67
2022-08-17T17:32:38.284Z,10.90
2022-08-17T17:35:17.390Z,10.20
2022-08-17T17:37:45.983Z,11.53
2022-08-17T17:40:36.138Z,9.87
2022-08-17T17:43:34.777Z,10.03
2022-08-17T17:46:26.625Z,8.83
2022-08-17T17:48:46.314Z,9.23
2022-08-17T17:52:08.550Z,10.53
2022-08-17T17:54:46.857Z,11.90
2022-08-17T17:57:33.902Z,14.33
2022-08-17T18:00:14.376Z,11.37
2022-08-17T18:02:51.503Z,9.87
2022-08-17T18:05:39.801Z,9.27
2022-08-17T18:08:32.396Z,10.27
2022-08-17T18:11:24.053Z,9.53
2022-08-17T18:14:00.829Z,9.03
2022-08-17T18:16:32.079Z,9.87
2022-08-17T18:18:59.809Z,13.63
2022-08-17T18:21:48.200Z,10.47
2022-08-17T18:24:15.214Z,10.90
2022-08-17T18:26:47.917Z,10.87
2022-08-17T18:29:28.032Z,13.70
2022-08-17T18:32:12.847Z,12.37
2022-08-17T18:34:48.282Z,10.83
2022-08-17T18:37:36.090Z,12.17
2022-08-17T18:40:20.631Z,12.90
2022-08-17T18:43:07.978Z,11.53
2022-08-17T18:45:45.442Z,10.43
2022-08-17T18:48:36.791Z,10.60
2022-08-17T18:51:49.413Z,10.40
2022-08-17T18:54:16.811Z,10.43
2022-08-17T18:56:49.485Z,10.40
2022-08-17T19:02:20.700Z,10.10
2022-08-17T19:05:13.451Z,12.73
2022-08-17T19:07:43.551Z,9.63
2022-08-17T19:10:28.877Z,10.00
2022-08-17T19:13:13.049Z,12.70
2022-08-17T19:16:14.443Z,10.03
2022-08-17T19:18:49.205Z,9.57
2022-08-17T19:21:23.087Z,11.97
2022-08-17T19:24:07.248Z,10.17
2022-08-17T19:26:53.318Z,9.33
2022-08-17T19:29:47.025Z,9.30
2022-08-17T19:32:18.565Z,12.23
2022-08-17T19:34:45.895Z,9.83
2022-08-17T19:37:22.438Z,8.90
2022-08-17T19:40:52.141Z,9.13
2022-08-17T19:43:48.484Z,8.30
2022-08-17T19:46:49.977Z,8.83
2022-08-17T19:49:41.473Z,8.93
2022-08-17T19:52:22.618Z,9.67
2022-08-17T19:55:02.456Z,8.70
2022-08-17T19:57:37.296Z,9.03
2022-08-17T20:00:14.257Z,10.93
2022-08-17T20:02:55.343Z,9.33
2022-08-17T20:06:10.831Z,9.43
2022-08-17T20:08:41.487Z,9.87
2022-08-17T20:11:13.855Z,10.07
2022-08-17T20:14:02.355Z,10.37
2022-08-17T20:16:30.724Z,9.17
2022-08-17T20:19:05.728Z,10.30
2022-08-17T20:21:42.273Z,10.43
2022-08-17T20:24:21.338Z,8.90
2022-08-17T20:27:17.810Z,10.60
2022-08-17T20:30:00.193Z,9.10
2022-08-17T20:32:29.798Z,10.33
2022-08-17T20:35:08.350Z,9.67
2022-08-17T20:37:36.815Z,11.03
2022-08-17T20:40:09.888Z,10.17
2022-08-17T20:42:38.440Z,10.10
2022-08-17T20:45:20.791Z,9.27
2022-08-17T20:48:18.694Z,8.97
2022-08-17T20:50:43.635Z,9.10
2022-08-17T20:53:15.132Z,10.23
2022-08-17T20:55:52.442Z,9.63
2022-08-17T20:58:24.498Z,10.53
2022-08-17T21:00:57.209Z,9.67
2022-08-17T21:03:24.370Z,10.67
2022-08-17T21:06:15.306Z,10.73
2022-08-17T21:08:57.658Z,10.77
2022-08-17T21:11:56.716Z,11.73
2022-08-17T21:14:20.277Z,11.43
2022-08-17T21:16:56.626Z,11.50
2022-08-17T21:20:10.340Z,12.07
2022-08-17T21:23:00.295Z,12.40
2022-08-17T21:25:40.139Z,13.13
2022-08-17T21:28:30.093Z,11.03
2022-08-17T21:31:08.389Z,12.20
2022-08-17T21:33:38.806Z,10.20
2022-08-17T21:36:15.503Z,11.37
2022-08-17T21:38:49.025Z,10.93
2022-08-17T21:41:24.776Z,15.87
2022-08-17T21:43:58.253Z,12.40
2022-08-17T21:46:30.578Z,11.63
2022-08-17T21:49:13.456Z,12.60
2022-08-17T21:51:50.891Z,11.10
2022-08-17T21:54:21.178Z,12.37
2022-08-17T21:56:48.601Z,13.60
2022-08-17T21:59:21.972Z,12.87
2022-08-17T22:02:01.903Z,11.73
2022-08-17T22:04:35.583Z,12.63
2022-08-17T22:07:06.543Z,12.20
2022-08-17T22:09:50.584Z,12.17
2022-08-17T22:12:20.827Z,12.30
2022-08-17T22:14:54.306Z,11.87
2022-08-17T22:17:27.481Z,12.90
2022-08-17T22:20:19.659Z,12.90
2022-08-17T22:23:04.964Z,12.73
2022-08-17T22:25:36.188Z,12.93
2022-08-17T22:28:06.144Z,11.80
2022-08-17T22:30:40.048Z,13.07
2022-08-17T22:33:36.096Z,13.33
2022-08-17T22:36:24.325Z,14.03
2022-08-17T22:39:00.526Z,15.67
2022-08-17T22:41:54.339Z,16.53
2022-08-17T22:44:38.507Z,16.63
2022-08-17T22:47:15.539Z,16.10
2022-08-17T22:49:53.209Z,16.30
2022-08-17T22:52:31.563Z,17.83
2022-08-17T22:55:31.382Z,18.23
2022-08-17T22:58:18.137Z,19.30
2022-08-17T23:00:48.171Z,17.60
2022-08-17T23:03:22.240Z,18.63
2022-08-17T23:06:07.967Z,16.13
2022-08-17T23:08:46.299Z,17.93
2022-08-17T23:11:17.557Z,18.10
2022-08-17T23:13:45.940Z,19.60
2022-08-17T23:16:14.961Z,17.43
2022-08-17T23:18:41.908Z,15.80
2022-08-17T23:21:08.905Z,15.93
2022-08-17T23:23:43.805Z,15.07
2022-08-17T23:26:11.292Z,15.10
2022-08-17T23:28:38.307Z,14.73
2022-08-17T23:31:05.605Z,14.97
2022-08-17T23:33:38.625Z,14.70
2022-08-17T23:36:07.496Z,14.53
2022-08-17T23:38:35.170Z,15.23
2022-08-17T23:41:05.684Z,15.33
2022-08-17T23:43:33.051Z,15.20
2022-08-17T23:46:00.661Z,14.77
2022-08-17T23:48:35.919Z,14.10
2022-08-17T23:51:09.087Z,14.07
2022-08-17T23:53:37.566Z,13.83
2022-08-17T23:56:10.361Z,14.00
2022-08-17T23:58:45.897Z,14.30
